This is the latest recevied weather packets stored in our database for station/object KO4ILY. If no packets are shown the sender has not sent any weather packets the latest 10 day(s).
| Time | Temp. | Humidity | Pressure | Rain* | Wind** | Luminosity | Snow |
|---|---|---|---|---|---|---|---|
| 1787864405 | 32.22° C | 53% | 1012 hPa | 0 mm | - | - | - |
| 1787860805 | 30.56° C | 56% | 1012.5 hPa | 0 mm | - | - | - |
| 1787857205 | 28.89° C | 65% | 1013.2 hPa | 0 mm | - | - | - |
| 1787853605 | 30.56° C | 60% | 1013.4 hPa | 0 mm | - | - | - |
| 1787850005 | 30° C | 59% | 1014.2 hPa | 0 mm | - | - | - |
| 1787846405 | 27.78° C | 65% | 1014.6 hPa | 0 mm | - | - | - |
| 1787842805 | 25° C | 77% | 1015 hPa | 0 mm | - | - | - |
| 1787839205 | 22.22° C | 89% | 1015.3 hPa | 0 mm | - | - | - |
| 1787835605 | 20.56° C | 94% | 1015.3 hPa | 0 mm | - | - | - |
| 1787832005 | 19.44° C | 100% | 1015.1 hPa | 0 mm | - | - | - |
| 1787828405 | 19.44° C | 99% | 1014.5 hPa | 0 mm | - | - | - |
| 1787824805 | 19.44° C | 99% | 1014.7 hPa | 0 mm | - | - | - |
| 1787821205 | 19.44° C | 97% | 1014.8 hPa | 0 mm | - | - | - |
| 1787817605 | 20° C | 97% | 1014.5 hPa | 0 mm | - | - | - |
| 1787814005 | 20° C | 96% | 1014.7 hPa | 0 mm | - | - | - |
| 1787810405 | 20.56° C | 95% | 1015 hPa | 0 mm | - | - | - |
| 1787806805 | 21.67° C | 92% | 1015 hPa | 0 mm | - | - | - |
| 1787803206 | 21.67° C | 89% | 1014.7 hPa | 0 mm | - | - | - |
| 1787799606 | 22.78° C | 86% | 1014.6 hPa | 0 mm | - | - | - |
| 1787796006 | 23.33° C | 80% | 1014.6 hPa | 0 mm | - | - | - |
| 1787792405 | 23.89° C | 79% | 1014.1 hPa | 0 mm | - | - | - |
| 1787788806 | 25° C | 73% | 1013.4 hPa | 0 mm | - | - | - |
| 1787785205 | 26.11° C | 71% | 1014 hPa | 0 mm | - | - | - |
| 1787781605 | 28.89° C | 64% | 1013.9 hPa | 0 mm | - | - | - |
| 1787778005 | 30.56° C | 60% | 1013.8 hPa | 0 mm | - | - | - |
* Rain latest hour (hover to see other rain measurements)
** Current wind speed in m/s (hover to see current wind gust speed)